Terminal Aerodrome Forecast
Issued by NWS

Home | Current Version | Previous Version | Text Only | Print | Product List | Glossary Off
Versions: 1 2 3 4 5 6 7 8 9 10 11 12 13 14 15 16 17

000
FTUS43 KICT 100500
TAFHUT
TAF
KHUT 100527Z 1006/1106 13010KT P6SM VCTS SCT070CB BKN150
      TEMPO 1006/1010 4SM -TSRA BKN035CB
     FM101200 14014G20KT P6SM SCT080 BKN150
     FM101700 16019G27KT P6SM SCT150
     FM110200 17015G21KT P6SM SKC=

USA.gov is the U.S. government's official web portal to all federal, state and local government web resources and services.